Strabane, United Kingdom
Current Conditions -  °F | °C
As of 3:50 PM on Wednesday 17 Dec 2014 (Local Time) from EGAE Reporting Station
Broken Clouds Broken Clouds  
Wind Chill: 54°   Ceiling: 1300
Heat Index: 54°   Visibility: 6mi
Dew Point: 50°   Wind: 14mph
Humidity: 88%   Direction: 240°WSW
Pressure: 29.53"   Gusts: NA
Location:  54.82°N, 7.47°W
Report Text: EGAE 171550Z 24012KT 9000 SCT007 BKN013 12/10 Q1000
Loading
Personal Weather Stations






























Interactive Weather Map New forecast layout! Learn more

10-Day Weather Forecast

Advertisements
Track Severe Weather on mobile